Time;durP1;ratioP1;P1;durP2;ratioP2;P2;SDS_P1;SDS_P2;PMS_P1;PMS_P2;Temp;Humidity;BMP_temperature;BMP_pressure;BME280_temperature;BME280_humidity;BME280_pressure;Samples;Min_cycle;Max_cycle;Signal;HPM_P1;HPM_P2
2024/02/01 00:00:58;;;;;;;36.70;14.90;;;;;;;3.25;nan;97036.53;2065499;28;20047;-59
2024/02/01 00:01:59;;;;;;;23.70;14.65;;;;;;;3.21;nan;97032.28;2065527;28;20050;-59
2024/02/01 00:03:00;;;;;;;23.08;14.73;;;;;;;3.21;nan;97036.56;2065747;28;20049;-60
2024/02/01 00:04:02;;;;;;;21.77;14.88;;;;;;;3.15;nan;97026.28;2065117;28;20054;-59
2024/02/01 00:05:03;;;;;;;22.95;13.15;;;;;;;3.19;nan;97031.44;2065949;28;20061;-59
2024/02/01 00:06:04;;;;;;;23.65;13.65;;;;;;;3.15;nan;97027.16;2057099;28;20050;-59
2024/02/01 00:07:05;;;;;;;22.65;12.85;;;;;;;3.19;nan;97030.59;2056729;28;20050;-59
2024/02/01 00:08:07;;;;;;;24.42;13.02;;;;;;;3.18;nan;97031.41;2065622;28;20045;-60
2024/02/01 00:09:08;;;;;;;21.30;11.52;;;;;;;3.17;nan;97024.59;2065636;28;20053;-59
2024/02/01 00:10:09;;;;;;;23.00;13.30;;;;;;;3.22;nan;97031.41;2065697;28;20406;-61
2024/02/01 00:11:10;;;;;;;22.23;12.43;;;;;;;3.21;nan;97031.44;2065797;28;20046;-59
2024/02/01 00:12:11;;;;;;;25.45;14.02;;;;;;;3.25;nan;97036.53;2064746;28;20046;-59
2024/02/01 00:13:12;;;;;;;23.35;13.65;;;;;;;3.34;nan;97033.09;2065699;28;20505;-58
2024/02/01 00:14:13;;;;;;;24.45;14.63;;;;;;;3.31;nan;97028.84;2065559;28;20053;-58
2024/02/01 00:15:14;;;;;;;21.92;13.68;;;;;;;3.37;nan;97021.97;2065714;28;20046;-59
2024/02/01 00:16:20;;;;;;;24.33;14.18;;;;;;;3.34;nan;97027.97;2065615;28;20087;-59
2024/02/01 00:17:21;;;;;;;23.52;14.52;;;;;;;3.33;nan;97031.41;2064817;28;20038;-58
2024/02/01 00:18:23;;;;;;;19.15;12.10;;;;;;;3.27;nan;97029.69;2065410;28;20042;-60
2024/02/01 00:19:24;;;;;;;26.98;13.95;;;;;;;3.34;nan;97024.53;2065638;28;20038;-60
2024/02/01 00:20:25;;;;;;;22.25;14.45;;;;;;;3.40;nan;97027.97;2065796;28;20061;-59
2024/02/01 00:21:27;;;;;;;23.52;12.73;;;;;;;3.41;nan;97029.66;2064975;28;20413;-59
2024/02/01 00:22:28;;;;;;;21.65;13.88;;;;;;;3.41;nan;97023.69;2065446;28;20045;-59
2024/02/01 00:23:29;;;;;;;27.33;13.65;;;;;;;3.44;nan;97028.81;2065901;28;20474;-62
2024/02/01 00:24:30;;;;;;;22.27;14.73;;;;;;;3.48;nan;97033.09;2065255;28;20038;-60
2024/02/01 00:25:31;;;;;;;21.92;14.52;;;;;;;3.50;nan;97028.78;2065586;28;20046;-60
2024/02/01 00:26:32;;;;;;;22.02;12.50;;;;;;;3.53;nan;97027.06;2065613;28;20039;-60
2024/02/01 00:27:33;;;;;;;23.35;13.73;;;;;;;3.54;nan;97022.78;2065958;28;20042;-60
2024/02/01 00:28:34;;;;;;;24.92;14.27;;;;;;;3.54;nan;97030.50;2064894;28;20410;-61
2024/02/01 00:29:35;;;;;;;24.05;15.20;;;;;;;3.48;nan;97022.81;2064879;28;20058;-60
2024/02/01 00:30:37;;;;;;;20.75;13.40;;;;;;;3.43;nan;97032.25;2065374;28;20057;-60
2024/02/01 00:31:38;;;;;;;24.23;13.55;;;;;;;3.33;nan;97025.41;2065366;28;20061;-60
2024/02/01 00:32:39;;;;;;;21.27;13.73;;;;;;;3.26;nan;97028.00;2065913;28;20525;-60
2024/02/01 00:33:41;;;;;;;19.25;11.75;;;;;;;3.20;nan;97019.44;2065178;28;20069;-60
2024/02/01 00:34:42;;;;;;;24.55;12.75;;;;;;;3.16;nan;97018.59;2065590;28;20054;-59
2024/02/01 00:35:43;;;;;;;22.52;14.10;;;;;;;3.13;nan;97020.31;2065605;28;20049;-60
2024/02/01 00:36:44;;;;;;;23.42;12.35;;;;;;;3.09;nan;97016.91;2065313;28;20061;-59
2024/02/01 00:37:45;;;;;;;21.98;12.10;;;;;;;3.09;nan;97019.47;2065613;28;20509;-59
2024/02/01 00:38:46;;;;;;;22.63;13.55;;;;;;;3.11;nan;97016.91;2065704;28;20039;-60
2024/02/01 00:39:47;;;;;;;21.25;13.63;;;;;;;3.12;nan;97016.03;2065066;28;20069;-60
2024/02/01 00:40:49;;;;;;;17.75;11.63;;;;;;;3.11;nan;97016.91;2065892;28;20045;-59
2024/02/01 00:41:50;;;;;;;24.35;13.77;;;;;;;3.13;nan;97016.06;2065116;28;20053;-60
2024/02/01 00:42:51;;;;;;;21.63;13.85;;;;;;;3.06;nan;96998.94;2065802;28;20347;-60
2024/02/01 00:43:52;;;;;;;24.25;13.88;;;;;;;3.05;nan;97008.34;2065750;28;20034;-60
2024/02/01 00:44:53;;;;;;;23.35;13.35;;;;;;;3.02;nan;97012.63;2065552;28;20054;-59
2024/02/01 00:45:54;;;;;;;20.90;13.15;;;;;;;3.02;nan;97012.63;2065531;28;20037;-60
2024/02/01 00:46:55;;;;;;;23.55;13.30;;;;;;;2.98;nan;97013.50;2064578;28;20069;-60
2024/02/01 00:47:56;;;;;;;21.65;12.60;;;;;;;2.97;nan;97007.50;2065684;28;20030;-60
2024/02/01 00:48:57;;;;;;;24.98;13.85;;;;;;;2.97;nan;97004.09;2065541;28;20046;-60
2024/02/01 00:50:00;;;;;;;20.77;12.07;;;;;;;2.95;nan;97003.25;2065428;28;20433;-60
2024/02/01 00:51:01;;;;;;;22.40;13.80;;;;;;;2.96;nan;96999.81;2064645;28;20394;-60
2024/02/01 00:52:03;;;;;;;19.08;11.98;;;;;;;2.94;nan;97002.41;2065502;28;20054;-59
2024/02/01 00:53:04;;;;;;;21.70;13.27;;;;;;;2.97;nan;97004.09;2064364;28;20054;-59
2024/02/01 00:54:05;;;;;;;28.45;15.63;;;;;;;2.99;nan;97002.38;2056885;28;20585;-60
2024/02/01 00:55:06;;;;;;;23.33;13.88;;;;;;;3.02;nan;96999.78;2056967;28;20053;-59
2024/02/01 00:56:07;;;;;;;22.48;13.32;;;;;;;3.07;nan;97004.09;2056444;28;20046;-59
2024/02/01 00:57:09;;;;;;;24.23;12.82;;;;;;;3.13;nan;97004.91;2056989;28;20467;-60
2024/02/01 00:58:10;;;;;;;25.45;13.95;;;;;;;3.19;nan;97012.63;2065512;28;20145;-59
2024/02/01 00:59:11;;;;;;;21.25;13.85;;;;;;;3.20;nan;97004.88;2065682;28;20486;-60
2024/02/01 01:00:12;;;;;;;22.85;12.80;;;;;;;3.27;nan;97019.44;2065689;28;20037;-60
2024/02/01 01:01:13;;;;;;;24.83;13.75;;;;;;;3.33;nan;97015.16;2065257;28;20062;-59
2024/02/01 01:02:14;;;;;;;22.40;13.88;;;;;;;3.40;nan;97010.00;2065638;28;20480;-59
2024/02/01 01:03:16;;;;;;;21.00;13.70;;;;;;;3.45;nan;97013.41;2065624;28;20038;-60
2024/02/01 01:04:17;;;;;;;20.20;13.02;;;;;;;3.52;nan;97009.09;2065539;28;20042;-59
2024/02/01 01:05:18;;;;;;;22.20;14.50;;;;;;;3.59;nan;97002.22;2056326;28;20042;-60
2024/02/01 01:06:19;;;;;;;28.10;14.98;;;;;;;3.64;nan;97003.91;2057035;28;20043;-60
2024/02/01 01:07:20;;;;;;;22.20;13.80;;;;;;;3.73;nan;97009.00;2065558;28;20398;-60
2024/02/01 01:08:21;;;;;;;21.80;12.95;;;;;;;3.79;nan;97015.84;2065436;28;20050;-60
2024/02/01 01:09:22;;;;;;;21.55;13.60;;;;;;;3.83;nan;97001.28;2064912;28;20042;-59
2024/02/01 01:10:23;;;;;;;21.55;13.52;;;;;;;3.86;nan;97004.69;2065547;28;20398;-59
2024/02/01 01:11:25;;;;;;;23.95;14.13;;;;;;;3.88;nan;97010.66;2065582;28;20033;-60
2024/02/01 01:12:27;;;;;;;23.50;14.48;;;;;;;3.92;nan;97008.94;2064475;28;20053;-59
2024/02/01 01:13:28;;;;;;;21.40;14.40;;;;;;;3.93;nan;97011.50;2065481;28;20038;-59
2024/02/01 01:14:29;;;;;;;22.45;12.95;;;;;;;3.96;nan;97010.63;2065006;28;20371;-59
2024/02/01 01:15:30;;;;;;;21.45;12.85;;;;;;;3.98;nan;97009.78;2065590;28;20030;-60
2024/02/01 01:16:31;;;;;;;23.90;13.68;;;;;;;4.03;nan;97019.16;2065436;28;20038;-60
2024/02/01 01:17:32;;;;;;;25.05;13.10;;;;;;;4.02;nan;97012.31;2065430;28;20169;-59
2024/02/01 01:18:33;;;;;;;24.80;15.13;;;;;;;4.04;nan;97019.16;2065732;28;20097;-61
2024/02/01 01:19:34;;;;;;;26.50;16.38;;;;;;;4.05;nan;97023.44;2065371;28;20062;-60
2024/02/01 01:20:35;;;;;;;21.52;13.27;;;;;;;4.06;nan;97017.41;2065435;28;20532;-61
2024/02/01 01:21:36;;;;;;;21.38;16.23;;;;;;;4.06;nan;97024.28;2065476;28;20045;-59
2024/02/01 01:22:37;;;;;;;24.30;14.30;;;;;;;4.07;nan;97019.13;2065552;28;20043;-61
2024/02/01 01:23:39;;;;;;;24.83;14.68;;;;;;;4.07;nan;97016.56;2065484;28;20042;-61
2024/02/01 01:24:40;;;;;;;24.90;14.82;;;;;;;4.10;nan;97018.28;2065064;28;20054;-61
2024/02/01 01:25:41;;;;;;;23.23;13.98;;;;;;;4.12;nan;97019.13;2064961;28;20474;-61
2024/02/01 01:26:43;;;;;;;21.75;13.80;;;;;;;4.13;nan;97013.94;2065504;28;20034;-61
2024/02/01 01:27:44;;;;;;;25.15;15.68;;;;;;;4.14;nan;97010.53;2065326;28;20491;-61
2024/02/01 01:28:45;;;;;;;23.73;13.30;;;;;;;4.12;nan;97011.41;2065304;28;20046;-61
2024/02/01 01:29:46;;;;;;;25.23;14.85;;;;;;;4.15;nan;97003.69;2067022;28;20042;-61
2024/02/01 01:30:49;;;;;;;22.13;10.65;;;;;;;4.15;nan;97001.09;2066744;28;20058;-61
2024/02/01 01:31:50;;;;;;;24.42;14.68;;;;;;;4.16;nan;97006.22;2066335;28;20399;-61
2024/02/01 01:32:52;;;;;;;20.38;11.43;;;;;;;4.17;nan;97004.50;2066840;28;20045;-61
2024/02/01 01:33:53;;;;;;;23.25;14.63;;;;;;;4.20;nan;97002.78;2066810;28;20399;-61
2024/02/01 01:34:54;;;;;;;25.02;13.55;;;;;;;4.13;nan;97008.81;2065942;28;20053;-61
2024/02/01 01:35:55;;;;;;;21.83;14.18;;;;;;;4.11;nan;97010.53;2066819;28;20081;-61
2024/02/01 01:36:56;;;;;;;24.25;14.48;;;;;;;4.07;nan;97005.44;2066537;28;20046;-61
2024/02/01 01:37:57;;;;;;;24.08;14.68;;;;;;;4.04;nan;97002.88;2065847;28;20046;-61
2024/02/01 01:38:58;;;;;;;22.98;13.95;;;;;;;4.04;nan;97014.03;2066216;28;20426;-61
2024/02/01 01:39:59;;;;;;;24.75;14.68;;;;;;;4.07;nan;97005.44;2066957;28;20038;-61
2024/02/01 01:41:00;;;;;;;24.50;13.98;;;;;;;4.08;nan;97009.69;2067098;28;20038;-61
2024/02/01 01:42:02;;;;;;;25.92;14.18;;;;;;;4.08;nan;97013.13;2058057;28;20507;-61
2024/02/01 01:43:03;;;;;;;22.95;13.88;;;;;;;4.12;nan;97008.84;2058155;28;20395;-61
2024/02/01 01:44:04;;;;;;;24.27;14.18;;;;;;;4.12;nan;97007.13;2057713;28;20426;-61
2024/02/01 01:45:05;;;;;;;24.75;14.07;;;;;;;4.12;nan;97007.13;2058240;28;20050;-61
2024/02/01 01:46:07;;;;;;;22.83;14.07;;;;;;;4.16;nan;97001.06;2066759;28;20041;-61
2024/02/01 01:47:08;;;;;;;23.33;13.82;;;;;;;4.17;nan;97007.06;2049474;29;20107;-62
2024/02/01 01:48:09;;;;;;;22.33;14.20;;;;;;;4.16;nan;97006.22;2049986;28;20054;-61
2024/02/01 01:49:10;;;;;;;24.27;15.25;;;;;;;4.15;nan;97008.81;2058045;28;20046;-61
2024/02/01 01:50:11;;;;;;;20.70;14.45;;;;;;;4.12;nan;97006.28;2056573;28;20059;-61
2024/02/01 01:51:12;;;;;;;24.92;14.25;;;;;;;4.11;nan;97001.97;2066211;28;20475;-61
2024/02/01 01:52:13;;;;;;;23.95;15.70;;;;;;;4.15;nan;97001.09;2049908;29;20039;-60
2024/02/01 01:53:14;;;;;;;25.77;15.35;;;;;;;4.11;nan;97000.25;2050261;28;20066;-60
2024/02/01 01:54:16;;;;;;;26.80;14.45;;;;;;;4.16;nan;96995.94;2066181;28;20054;-61
2024/02/01 01:55:17;;;;;;;23.98;14.32;;;;;;;4.22;nan;96984.75;2066479;28;20398;-61
2024/02/01 01:56:18;;;;;;;25.90;14.65;;;;;;;4.23;nan;97001.91;2066033;28;20049;-60
2024/02/01 01:57:19;;;;;;;25.27;15.30;;;;;;;4.18;nan;96994.22;2066456;28;20057;-61
2024/02/01 01:58:20;;;;;;;23.73;13.77;;;;;;;4.26;nan;96986.47;2057704;28;20475;-60
2024/02/01 01:59:22;;;;;;;24.08;14.38;;;;;;;4.34;nan;96988.97;2050067;28;20039;-61
2024/02/01 02:00:23;;;;;;;23.48;13.90;;;;;;;4.34;nan;96991.56;2057318;28;20414;-60
2024/02/01 02:01:24;;;;;;;24.50;14.63;;;;;;;4.33;nan;96992.41;2066090;28;20058;-61
2024/02/01 02:02:26;;;;;;;23.70;14.00;;;;;;;4.39;nan;96988.09;2057980;28;20053;-61
2024/02/01 02:03:27;;;;;;;21.52;14.05;;;;;;;4.43;nan;96984.59;2042177;29;20039;-61
2024/02/01 02:04:28;;;;;;;21.42;13.63;;;;;;;4.49;nan;96983.75;2042209;29;20034;-61
2024/02/01 02:05:29;;;;;;;25.23;14.25;;;;;;;4.51;nan;96994.00;2058026;28;20097;-60
2024/02/01 02:06:30;;;;;;;23.23;13.55;;;;;;;4.51;nan;96992.28;2066544;28;20050;-60
2024/02/01 02:07:31;;;;;;;22.65;13.38;;;;;;;4.55;nan;96983.69;2057968;28;20408;-60
2024/02/01 02:08:32;;;;;;;22.55;13.50;;;;;;;4.58;nan;96996.50;2057942;28;20035;-61
2024/02/01 02:09:33;;;;;;;23.10;14.35;;;;;;;4.61;nan;96988.78;2066365;28;20054;-60
2024/02/01 02:10:35;;;;;;;23.55;13.07;;;;;;;4.65;nan;96992.16;2066805;28;20042;-61
2024/02/01 02:11:36;;;;;;;22.33;13.75;;;;;;;4.65;nan;96992.16;2066124;28;20046;-61
2024/02/01 02:12:37;;;;;;;25.40;15.10;;;;;;;4.66;nan;96990.47;2057999;28;20418;-61
2024/02/01 02:13:45;;;;;;;20.92;13.63;;;;;;;4.67;nan;96993.00;2041782;29;20047;-61
2024/02/01 02:15:00;;;;;;;23.70;14.57;;;;;;;4.64;nan;96991.31;2052342;28;20077;-60
2024/02/01 02:16:01;;;;;;;21.33;13.90;;;;;;;4.64;nan;96982.75;2066617;28;20042;-61
2024/02/01 02:17:04;;;;;;;29.65;14.88;;;;;;;4.65;nan;96989.59;2066064;28;20406;-60
2024/02/01 02:18:09;;;;;;;24.77;14.70;;;;;;;4.67;nan;96997.31;2066241;28;20061;-60
2024/02/01 02:19:10;;;;;;;22.17;13.63;;;;;;;4.69;nan;96993.00;2066289;28;20406;-61
2024/02/01 02:20:18;;;;;;;23.58;13.27;;;;;;;4.72;nan;96992.97;2066447;28;20512;-60
2024/02/01 02:21:19;;;;;;;20.20;12.18;;;;;;;4.73;nan;96985.25;2066585;28;20037;-61
2024/02/01 02:22:21;;;;;;;24.98;13.77;;;;;;;4.77;nan;96992.06;2049995;28;20082;-61
2024/02/01 02:23:22;;;;;;;24.30;13.88;;;;;;;4.77;nan;96989.50;2050085;28;20043;-60
2024/02/01 02:24:23;;;;;;;20.25;12.20;;;;;;;4.78;nan;96995.50;2065858;28;20065;-60
2024/02/01 02:25:24;;;;;;;21.45;13.32;;;;;;;4.78;nan;96987.78;2066263;28;20069;-61
2024/02/01 02:26:26;;;;;;;21.65;12.57;;;;;;;4.79;nan;96987.78;2066452;28;20038;-60
2024/02/01 02:27:27;;;;;;;23.05;12.52;;;;;;;4.82;nan;96984.31;2066121;28;20486;-60
2024/02/01 02:28:28;;;;;;;18.75;10.82;;;;;;;4.85;nan;96987.72;2066676;28;20035;-60
2024/02/01 02:29:29;;;;;;;22.23;13.10;;;;;;;4.85;nan;96980.00;2065533;28;20045;-60
2024/02/01 02:30:31;;;;;;;19.95;11.85;;;;;;;4.85;nan;96984.28;2065704;28;20054;-61
2024/02/01 02:31:32;;;;;;;18.67;11.38;;;;;;;4.88;nan;96984.25;2066359;28;20034;-60
2024/02/01 02:32:33;;;;;;;19.55;12.15;;;;;;;4.87;nan;96974.84;2065858;28;20038;-61
2024/02/01 02:33:34;;;;;;;21.55;13.32;;;;;;;4.85;nan;96979.16;2065802;28;20053;-61
2024/02/01 02:34:35;;;;;;;21.63;12.27;;;;;;;4.84;nan;96990.31;2066441;28;20038;-60
2024/02/01 02:35:36;;;;;;;23.02;12.05;;;;;;;4.86;nan;96978.25;2066578;28;20046;-61
2024/02/01 02:36:38;;;;;;;21.60;11.52;;;;;;;4.89;nan;96977.38;2066244;28;20050;-60
2024/02/01 02:37:45;;;;;;;20.05;11.52;;;;;;;4.95;nan;96982.50;2066072;28;20517;-63
2024/02/01 02:38:46;;;;;;;20.95;11.98;;;;;;;4.99;nan;96979.00;2066352;28;20372;-61
2024/02/01 02:39:47;;;;;;;18.58;11.32;;;;;;;5.00;nan;96984.16;2065871;28;20046;-61
2024/02/01 02:40:48;;;;;;;19.73;12.40;;;;;;;4.97;nan;96981.63;2065480;28;20054;-60
2024/02/01 02:41:50;;;;;;;18.25;10.60;;;;;;;4.94;nan;96981.63;2065999;28;20054;-60
2024/02/01 02:42:51;;;;;;;21.70;11.70;;;;;;;4.97;nan;96981.63;2066463;28;20483;-60
2024/02/01 02:43:52;;;;;;;17.98;10.65;;;;;;;4.94;nan;96980.78;2066074;28;20042;-61
2024/02/01 02:44:53;;;;;;;19.38;9.85;;;;;;;4.96;nan;96979.03;2066235;28;20471;-60
2024/02/01 02:45:54;;;;;;;17.42;10.45;;;;;;;4.95;nan;96980.78;2066540;28;20034;-60
2024/02/01 02:46:55;;;;;;;17.88;11.27;;;;;;;4.94;nan;96989.34;2066395;28;20057;-62
2024/02/01 02:47:57;;;;;;;13.85;6.82;;;;;;;4.95;nan;96987.66;2057648;28;20556;-61
2024/02/01 02:48:58;;;;;;;16.05;9.82;;;;;;;4.98;nan;96985.88;2057856;28;20038;-61
2024/02/01 02:49:59;;;;;;;18.92;10.45;;;;;;;4.97;nan;96986.75;2066272;28;20046;-61
2024/02/01 02:51:01;;;;;;;23.95;11.55;;;;;;;4.92;nan;96979.94;2065620;28;20050;-61
2024/02/01 02:52:02;;;;;;;20.27;10.40;;;;;;;4.93;nan;96989.38;2065706;28;20057;-60
2024/02/01 02:53:03;;;;;;;17.88;10.00;;;;;;;4.91;nan;96984.22;2065613;28;20046;-61
2024/02/01 02:54:05;;;;;;;17.83;9.73;;;;;;;4.89;nan;96983.38;2065983;28;20061;-61
2024/02/01 02:55:09;;;;;;;19.30;10.23;;;;;;;4.90;nan;96977.38;2057609;28;20054;-60
2024/02/01 02:56:10;;;;;;;19.67;10.95;;;;;;;4.89;nan;96985.94;2057888;28;20046;-60
2024/02/01 02:57:11;;;;;;;18.90;10.00;;;;;;;4.87;nan;96980.00;2066163;28;20053;-60
2024/02/01 02:58:12;;;;;;;19.13;10.57;;;;;;;4.85;nan;96980.00;2066374;28;20507;-61
2024/02/01 02:59:13;;;;;;;24.38;11.10;;;;;;;4.87;nan;96980.00;2057852;28;20042;-61
2024/02/01 03:00:18;;;;;;;16.75;9.63;;;;;;;4.86;nan;96979.16;2057556;28;20046;-61
2024/02/01 03:01:20;;;;;;;17.00;10.15;;;;;;;4.88;nan;96981.69;2065426;28;20042;-60
2024/02/01 03:02:21;;;;;;;17.75;10.18;;;;;;;4.89;nan;96975.66;2065815;28;20494;-61
2024/02/01 03:03:22;;;;;;;17.75;10.07;;;;;;;4.90;nan;96971.38;2065751;28;20050;-60
2024/02/01 03:04:23;;;;;;;17.40;9.10;;;;;;;4.95;nan;96987.66;2065602;28;20046;-60
2024/02/01 03:05:24;;;;;;;16.73;9.63;;;;;;;4.96;nan;96979.03;2065537;28;20471;-60
2024/02/01 03:06:25;;;;;;;17.27;8.48;;;;;;;4.95;nan;96978.19;2065312;28;20049;-60
2024/02/01 03:07:27;;;;;;;18.98;10.55;;;;;;;4.98;nan;96979.88;2066004;28;20397;-60
2024/02/01 03:08:28;;;;;;;18.83;9.90;;;;;;;5.00;nan;96986.72;2066406;28;20041;-60
2024/02/01 03:09:29;;;;;;;18.88;8.63;;;;;;;5.01;nan;96982.44;2066097;28;20042;-61
2024/02/01 03:10:31;;;;;;;17.00;9.18;;;;;;;5.01;nan;96975.56;2066483;28;20034;-60
2024/02/01 03:11:32;;;;;;;16.13;9.73;;;;;;;5.01;nan;96983.28;2066153;28;20045;-60
2024/02/01 03:12:33;;;;;;;16.52;9.90;;;;;;;4.98;nan;96982.47;2066232;28;20042;-60
2024/02/01 03:13:35;;;;;;;19.15;9.45;;;;;;;4.95;nan;96982.50;2066295;28;20042;-61
2024/02/01 03:14:39;;;;;;;14.13;8.70;;;;;;;4.95;nan;96985.91;2066400;28;20039;-61
2024/02/01 03:15:40;;;;;;;15.93;8.35;;;;;;;4.99;nan;96979.00;2065050;28;20511;-60
2024/02/01 03:16:42;;;;;;;16.58;9.00;;;;;;;4.98;nan;96978.16;2066322;28;20037;-60
2024/02/01 03:17:44;;;;;;;19.48;9.70;;;;;;;4.98;nan;96983.31;2066061;28;20046;-60
2024/02/01 03:18:45;;;;;;;17.92;9.10;;;;;;;4.97;nan;96979.03;2066501;28;20057;-59
2024/02/01 03:19:53;;;;;;;17.17;9.88;;;;;;;4.97;nan;96976.47;2066784;28;20042;-60
2024/02/01 03:20:56;;;;;;;15.35;8.48;;;;;;;4.95;nan;96973.06;2065869;28;20058;-60
2024/02/01 03:21:58;;;;;;;18.05;8.65;;;;;;;4.95;nan;96973.06;2066725;28;20042;-60
2024/02/01 03:22:59;;;;;;;17.23;9.32;;;;;;;4.94;nan;96973.91;2065418;28;20065;-60
2024/02/01 03:24:02;;;;;;;15.63;9.38;;;;;;;4.93;nan;96973.94;2065485;28;20058;-61
2024/02/01 03:25:04;;;;;;;15.00;6.68;;;;;;;4.95;nan;96978.19;2065399;28;20046;-60
2024/02/01 03:26:05;;;;;;;15.77;7.78;;;;;;;5.06;nan;96973.78;2066069;28;20064;-60
2024/02/01 03:27:11;;;;;;;15.63;7.93;;;;;;;5.10;nan;96979.75;2065689;28;20502;-60
2024/02/01 03:28:13;;;;;;;15.65;7.82;;;;;;;5.16;nan;96971.09;2065680;28;20057;-60
2024/02/01 03:29:16;;;;;;;13.75;7.43;;;;;;;5.21;nan;96971.91;2065964;28;20471;-60
2024/02/01 03:30:17;;;;;;;18.50;8.20;;;;;;;5.22;nan;96971.06;2065415;28;20050;-61
2024/02/01 03:31:19;;;;;;;11.10;6.18;;;;;;;5.20;nan;96977.94;2056675;28;20046;-61
2024/02/01 03:32:20;;;;;;;16.75;8.73;;;;;;;5.19;nan;96971.09;2048957;28;20055;-59
2024/02/01 03:33:22;;;;;;;17.20;8.68;;;;;;;5.16;nan;96971.09;2057314;28;20499;-61
2024/02/01 03:34:27;;;;;;;13.80;7.13;;;;;;;5.11;nan;96966.03;2065540;28;20451;-61
2024/02/01 03:35:28;;;;;;;16.70;8.55;;;;;;;5.15;nan;96965.09;2065841;28;20071;-61
2024/02/01 03:36:30;;;;;;;12.98;6.28;;;;;;;5.19;nan;96963.38;2066209;28;20402;-60
2024/02/01 03:37:32;;;;;;;14.07;7.15;;;;;;;5.17;nan;96962.53;2064962;28;20053;-61
2024/02/01 03:38:33;;;;;;;15.38;8.25;;;;;;;5.15;nan;96965.09;2057279;28;20046;-61
2024/02/01 03:39:35;;;;;;;12.13;6.57;;;;;;;5.15;nan;96969.41;2057411;28;20479;-61
2024/02/01 03:40:38;;;;;;;12.50;5.95;;;;;;;5.21;nan;96971.91;2065883;28;20470;-61
2024/02/01 03:41:39;;;;;;;14.75;7.38;;;;;;;5.28;nan;96978.72;2065867;28;20053;-61
2024/02/01 03:42:40;;;;;;;14.38;7.68;;;;;;;5.28;nan;96974.41;2065834;28;20054;-60
2024/02/01 03:43:41;;;;;;;12.60;6.90;;;;;;;5.30;nan;96977.00;2066067;28;20046;-61
2024/02/01 03:44:43;;;;;;;11.60;6.07;;;;;;;5.29;nan;96976.13;2065778;28;20054;-60
2024/02/01 03:45:48;;;;;;;13.32;6.45;;;;;;;5.32;nan;96977.84;2065801;28;20050;-60
2024/02/01 03:46:51;;;;;;;13.15;7.13;;;;;;;5.33;nan;96973.53;2065851;28;20049;-60
2024/02/01 03:47:52;;;;;;;12.20;6.70;;;;;;;5.34;nan;96972.66;2065298;28;20048;-60
2024/02/01 03:48:53;;;;;;;11.38;6.65;;;;;;;5.30;nan;96971.84;2057378;28;20046;-60
2024/02/01 03:49:54;;;;;;;11.50;6.13;;;;;;;5.30;nan;96966.69;2056981;28;20062;-61
2024/02/01 03:50:55;;;;;;;12.95;7.03;;;;;;;5.30;nan;96970.09;2066033;28;20038;-59
2024/02/01 03:51:57;;;;;;;12.95;6.38;;;;;;;5.33;nan;96969.22;2065193;28;20411;-60
2024/02/01 03:52:58;;;;;;;12.55;5.82;;;;;;;5.36;nan;96971.75;2065854;28;20038;-61
2024/02/01 03:54:05;;;;;;;14.38;7.55;;;;;;;5.40;nan;96978.59;2065821;28;20054;-60
2024/02/01 03:55:16;;;;;;;16.02;6.85;;;;;;;5.38;nan;96972.59;2065861;28;20411;-60
2024/02/01 03:56:23;;;;;;;11.68;5.75;;;;;;;5.39;nan;96978.59;2065892;28;20046;-60
2024/02/01 03:57:24;;;;;;;13.85;7.35;;;;;;;5.37;nan;96981.19;2065888;28;20414;-60
2024/02/01 03:58:26;;;;;;;12.60;6.65;;;;;;;5.37;nan;96975.19;2065724;28;20045;-60
2024/02/01 03:59:27;;;;;;;12.77;6.43;;;;;;;5.39;nan;96969.16;2064965;28;20360;-61
2024/02/01 04:00:28;;;;;;;10.73;5.65;;;;;;;5.45;nan;96983.69;2065703;28;20038;-60
2024/02/01 04:01:30;;;;;;;11.95;5.93;;;;;;;5.45;nan;96981.97;2065106;28;20057;-60
2024/02/01 04:02:31;;;;;;;13.50;7.22;;;;;;;5.43;nan;96973.41;2065740;28;20034;-60
2024/02/01 04:03:32;;;;;;;13.98;6.57;;;;;;;5.43;nan;96978.56;2065828;28;20045;-60
2024/02/01 04:04:33;;;;;;;10.57;4.95;;;;;;;5.45;nan;96976.81;2064817;28;20052;-60
2024/02/01 04:05:37;;;;;;;16.33;6.47;;;;;;;5.47;nan;96979.38;2065892;28;20042;-60
2024/02/01 04:06:38;;;;;;;10.77;5.75;;;;;;;5.49;nan;96977.63;2065819;28;20064;-60
2024/02/01 04:07:39;;;;;;;13.40;6.18;;;;;;;5.48;nan;96983.63;2065686;28;20042;-60
2024/02/01 04:08:40;;;;;;;13.57;6.65;;;;;;;5.48;nan;96973.34;2065204;28;20065;-60
2024/02/01 04:09:45;;;;;;;15.55;6.82;;;;;;;5.46;nan;96980.25;2064954;28;20490;-60
2024/02/01 04:10:46;;;;;;;12.95;6.28;;;;;;;5.46;nan;96975.94;2065668;28;20049;-60
2024/02/01 04:11:47;;;;;;;13.75;7.20;;;;;;;5.48;nan;96979.38;2065356;28;20469;-64
2024/02/01 04:12:48;;;;;;;12.93;6.13;;;;;;;5.47;nan;96972.47;2065129;28;20043;-60
2024/02/01 04:13:49;;;;;;;15.10;6.88;;;;;;;5.54;nan;96981.00;2064790;28;20058;-60
2024/02/01 04:14:50;;;;;;;10.35;6.30;;;;;;;5.56;nan;96976.69;2065413;28;20046;-60
2024/02/01 04:15:52;;;;;;;9.65;6.32;;;;;;;5.60;nan;96982.66;2065512;28;20050;-61
2024/02/01 04:16:55;;;;;;;10.65;5.55;;;;;;;5.64;nan;96982.63;2065119;28;20058;-61
2024/02/01 04:17:57;;;;;;;14.32;6.00;;;;;;;5.70;nan;96967.06;2065412;28;20053;-60
2024/02/01 04:18:58;;;;;;;8.93;5.13;;;;;;;5.77;nan;96982.44;2065688;28;20038;-61
2024/02/01 04:19:59;;;;;;;13.40;6.63;;;;;;;5.75;nan;96982.47;2065103;28;20058;-60
2024/02/01 04:21:00;;;;;;;12.70;6.22;;;;;;;5.76;nan;96979.03;2065798;28;20042;-61
2024/02/01 04:22:01;;;;;;;12.82;6.38;;;;;;;5.78;nan;96979.88;2065627;28;20046;-61
2024/02/01 04:23:02;;;;;;;10.85;5.32;;;;;;;5.82;nan;96973.78;2065400;28;20158;-60
2024/02/01 04:24:04;;;;;;;9.95;5.85;;;;;;;5.84;nan;96986.66;2065449;28;20050;-61
2024/02/01 04:25:08;;;;;;;12.82;5.75;;;;;;;5.85;nan;96986.63;2065014;28;20494;-60
2024/02/01 04:26:14;;;;;;;9.88;4.72;;;;;;;5.93;nan;96982.28;2064974;28;20061;-60
2024/02/01 04:27:18;;;;;;;10.23;5.65;;;;;;;5.97;nan;96989.09;2065732;28;20034;-60
2024/02/01 04:28:19;;;;;;;9.50;6.03;;;;;;;5.98;nan;96989.94;2065566;28;20474;-61
2024/02/01 04:29:20;;;;;;;13.32;6.10;;;;;;;5.99;nan;96989.09;2065533;28;20068;-60
2024/02/01 04:30:23;;;;;;;12.98;7.03;;;;;;;5.99;nan;96991.66;2056224;28;20047;-60
2024/02/01 04:31:24;;;;;;;13.57;6.43;;;;;;;6.01;nan;97002.78;2056571;28;20069;-61
2024/02/01 04:32:26;;;;;;;16.90;7.50;;;;;;;6.01;nan;96995.03;2065316;28;20046;-60
2024/02/01 04:33:27;;;;;;;13.35;5.43;;;;;;;6.09;nan;96997.53;2065602;28;20030;-61
2024/02/01 04:34:28;;;;;;;11.80;6.18;;;;;;;6.16;nan;96981.09;2065504;28;20522;-60
2024/02/01 04:35:29;;;;;;;13.15;6.60;;;;;;;6.22;nan;96990.47;2065660;28;20022;-60
2024/02/01 04:36:30;;;;;;;12.10;6.15;;;;;;;6.24;nan;96988.75;2064963;28;20403;-61
2024/02/01 04:37:35;;;;;;;15.20;6.65;;;;;;;6.26;nan;96993.00;2065644;28;20045;-60
2024/02/01 04:38:36;;;;;;;10.80;6.35;;;;;;;6.24;nan;96992.16;2064947;28;20478;-60
2024/02/01 04:39:37;;;;;;;14.75;7.47;;;;;;;6.19;nan;97001.69;2065695;28;20507;-61
2024/02/01 04:40:39;;;;;;;14.15;7.35;;;;;;;6.16;nan;96987.09;2065253;28;20053;-61
2024/02/01 04:41:41;;;;;;;13.57;7.20;;;;;;;6.14;nan;96994.00;2065696;28;20042;-61
2024/02/01 04:42:47;;;;;;;12.18;6.60;;;;;;;6.13;nan;96988.88;2065208;28;20054;-60
2024/02/01 04:43:48;;;;;;;11.77;7.03;;;;;;;6.13;nan;96991.47;2065549;28;20207;-60
2024/02/01 04:44:50;;;;;;;12.63;6.82;;;;;;;6.12;nan;97000.06;2064611;28;20050;-60
2024/02/01 04:45:51;;;;;;;13.20;7.32;;;;;;;6.13;nan;96991.47;2065520;28;20038;-59
2024/02/01 04:46:52;;;;;;;14.52;7.00;;;;;;;6.09;nan;96998.38;2064942;28;20130;-61
2024/02/01 04:47:53;;;;;;;14.10;7.80;;;;;;;6.07;nan;96996.72;2065635;28;20043;-60
2024/02/01 04:48:54;;;;;;;15.20;7.93;;;;;;;6.02;nan;96985.63;2065135;28;20411;-60
2024/02/01 04:49:55;;;;;;;12.75;5.07;;;;;;;6.05;nan;96983.00;2064882;28;20050;-61
2024/02/01 04:50:56;;;;;;;12.45;6.03;;;;;;;6.09;nan;96964.84;2064834;28;20053;-61
2024/02/01 04:51:58;;;;;;;14.50;7.78;;;;;;;6.06;nan;96984.69;2064927;28;20046;-61
2024/02/01 04:52:59;;;;;;;14.38;7.85;;;;;;;6.04;nan;96973.53;2065681;28;20050;-60
2024/02/01 04:54:00;;;;;;;14.10;7.50;;;;;;;6.02;nan;96972.72;2064820;28;20423;-60
2024/02/01 04:55:05;;;;;;;13.45;7.05;;;;;;;5.98;nan;96971.88;2065569;28;20042;-60
2024/02/01 04:56:07;;;;;;;13.52;7.30;;;;;;;6.03;nan;96974.41;2065460;28;20050;-60